Time;durP1;ratioP1;P1;durP2;ratioP2;P2;SDS_P1;SDS_P2;PMS_P1;PMS_P2;Temp;Humidity;BMP_temperature;BMP_pressure;BME280_temperature;BME280_humidity;BME280_pressure;Samples;Min_cycle;Max_cycle;Signal;HPM_P1;HPM_P2
2023/09/24 00:01:19;;;;;;;7.80;4.47;;;;;;;15.18;82.56;101053.97;5056710;28;20213;-81
2023/09/24 00:03:47;;;;;;;4.87;4.47;;;;;;;15.13;82.69;101055.91;5058699;28;20233;-81
2023/09/24 00:06:14;;;;;;;4.60;4.20;;;;;;;15.17;83.45;101042.59;5058930;28;20208;-81
2023/09/24 00:08:40;;;;;;;4.53;4.13;;;;;;;15.21;83.70;101036.34;5057901;28;20243;-80
2023/09/24 00:11:08;;;;;;;5.27;4.77;;;;;;;15.18;84.03;101028.56;5058461;28;20224;-79
2023/09/24 00:13:35;;;;;;;4.87;4.43;;;;;;;15.14;84.13;101029.53;5059491;28;20202;-80
2023/09/24 00:16:05;;;;;;;4.77;4.37;;;;;;;15.25;84.06;101023.97;5053147;28;20589;-80
2023/09/24 00:18:32;;;;;;;5.10;4.70;;;;;;;15.32;83.81;101032.53;5053538;28;20213;-80
2023/09/24 00:21:01;;;;;;;4.87;4.47;;;;;;;15.25;84.00;101040.63;5059238;28;20201;-80
2023/09/24 00:23:28;;;;;;;5.70;5.27;;;;;;;15.26;83.93;101034.47;5057675;28;20209;-81
2023/09/24 00:25:55;;;;;;;5.23;4.83;;;;;;;15.29;84.51;101031.72;5058405;28;20209;-79
2023/09/24 00:28:22;;;;;;;6.80;6.13;;;;;;;15.36;83.81;101032.44;5048955;28;20241;-81
2023/09/24 00:30:50;;;;;;;6.20;5.80;;;;;;;15.30;85.04;101029.94;5052089;28;20722;-80
2023/09/24 00:33:17;;;;;;;6.50;6.00;;;;;;;15.37;85.37;101022.75;5050416;28;20214;-80
2023/09/24 00:35:43;;;;;;;5.50;5.10;;;;;;;15.43;84.93;101017.31;5053822;28;20220;-81
2023/09/24 00:38:11;;;;;;;5.40;5.10;;;;;;;15.49;84.63;101027.66;5055434;28;20272;-81
2023/09/24 00:40:38;;;;;;;5.67;5.27;;;;;;;15.51;85.06;101024.97;5058002;28;20204;-81
2023/09/24 00:43:05;;;;;;;6.53;5.93;;;;;;;15.26;85.55;101026.56;5058189;28;20205;-82
2023/09/24 00:45:32;;;;;;;7.43;6.30;;;;;;;15.06;87.92;100982.44;5049630;28;20706;-79
2023/09/24 00:47:59;;;;;;;8.27;7.70;;;;;;;14.75;89.23;100966.66;5050344;28;20210;-81
2023/09/24 00:50:35;;;;;;;8.50;7.80;;;;;;;14.69;90.57;100935.31;5048563;28;20232;-81
2023/09/24 00:53:02;;;;;;;7.67;7.13;;;;;;;14.97;89.83;100921.38;5042441;28;20224;-81
2023/09/24 00:55:31;;;;;;;8.53;7.93;;;;;;;14.86;89.60;100937.44;5048427;28;20283;-82
2023/09/24 00:57:58;;;;;;;8.03;7.53;;;;;;;15.03;89.44;100935.19;5055470;28;20205;-81
2023/09/24 01:00:25;;;;;;;8.00;7.50;;;;;;;15.15;89.09;100935.75;5051533;28;20224;-81
2023/09/24 01:02:52;;;;;;;8.10;7.43;;;;;;;15.04;89.66;100939.56;5057506;28;20205;-80
2023/09/24 01:05:18;;;;;;;8.03;7.43;;;;;;;15.15;89.02;100947.13;5041144;28;20209;-81
2023/09/24 01:07:45;;;;;;;7.87;7.20;;;;;;;15.11;89.19;100949.91;5050002;28;20209;-81
2023/09/24 01:10:15;;;;;;;7.63;7.00;;;;;;;15.25;88.85;100964.34;5058411;28;20252;-81
2023/09/24 01:12:54;;;;;;;7.27;6.77;;;;;;;15.37;88.14;100976.25;5045769;28;20235;-81
2023/09/24 01:15:23;;;;;;;7.40;6.80;;;;;;;15.47;87.11;101000.53;5054351;28;20276;-81
2023/09/24 01:17:49;;;;;;;8.57;7.87;;;;;;;15.54;86.52;101016.97;5051294;28;20214;-81
2023/09/24 01:20:20;;;;;;;7.40;6.80;;;;;;;15.51;86.25;101038.13;5059256;28;20201;-81
2023/09/24 01:22:50;;;;;;;8.60;7.77;;;;;;;15.54;86.32;101049.44;5058674;28;20292;-81
2023/09/24 01:25:18;;;;;;;9.73;8.87;;;;;;;15.16;87.89;101035.59;5059400;28;20215;-80
2023/09/24 01:27:45;;;;;;;8.87;8.17;;;;;;;15.24;88.14;101014.34;5047576;28;20208;-82
2023/09/24 01:30:13;;;;;;;7.67;7.17;;;;;;;15.26;88.50;100999.38;5051348;28;20753;-81
2023/09/24 01:32:40;;;;;;;8.00;7.50;;;;;;;15.35;88.50;100996.50;5056869;28;20268;-81
2023/09/24 01:35:08;;;;;;;7.40;7.00;;;;;;;15.45;87.55;101019.00;5058435;28;20266;-81
2023/09/24 01:37:35;;;;;;;7.80;7.30;;;;;;;15.28;87.87;101026.50;5063045;28;20217;-81
2023/09/24 01:40:14;;;;;;;7.23;6.83;;;;;;;15.40;86.88;101041.06;5062286;28;20217;-81
2023/09/24 01:42:42;;;;;;;6.77;6.20;;;;;;;15.40;86.73;101051.59;5054761;28;20232;-79
2023/09/24 01:45:10;;;;;;;8.27;7.57;;;;;;;15.31;87.16;101060.63;5055676;28;20210;-82
2023/09/24 01:47:37;;;;;;;8.10;7.50;;;;;;;15.20;87.84;101042.53;5053431;28;20663;-79
2023/09/24 01:50:08;;;;;;;6.67;6.17;;;;;;;15.35;87.63;101048.25;5056622;28;20234;-80
2023/09/24 01:52:35;;;;;;;6.13;5.57;;;;;;;15.33;87.82;101043.03;5054181;28;20209;-80
2023/09/24 01:55:03;;;;;;;6.33;5.93;;;;;;;15.36;87.23;101042.06;5054796;28;20206;-82
2023/09/24 01:57:30;;;;;;;5.70;5.20;;;;;;;15.44;86.88;101066.38;5058257;28;20210;-83
2023/09/24 01:59:57;;;;;;;6.67;6.17;;;;;;;15.47;86.58;101075.06;5050953;28;20614;-82
2023/09/24 02:02:26;;;;;;;8.17;7.03;;;;;;;15.47;86.04;101080.31;5059831;28;20212;-82
2023/09/24 02:04:54;;;;;;;7.10;6.60;;;;;;;15.37;85.82;101085.91;5057870;28;20203;-81
2023/09/24 02:07:20;;;;;;;7.17;6.57;;;;;;;15.35;85.84;101096.47;5060001;28;20217;-81
2023/09/24 02:09:47;;;;;;;6.63;6.03;;;;;;;15.33;85.57;101106.16;5063748;28;20235;-81
2023/09/24 02:12:15;;;;;;;7.50;7.00;;;;;;;15.28;85.14;101113.31;5052041;28;20232;-80
2023/09/24 02:14:41;;;;;;;6.93;6.27;;;;;;;15.22;85.21;101118.75;5051411;28;20251;-80
2023/09/24 02:17:09;;;;;;;6.27;5.80;;;;;;;15.26;84.75;101128.25;5062205;28;20216;-82
2023/09/24 02:19:35;;;;;;;7.23;6.67;;;;;;;15.19;84.85;101139.88;5060572;28;20225;-82
2023/09/24 02:22:03;;;;;;;6.50;5.90;;;;;;;15.10;85.04;101140.97;5057865;28;20212;-82
2023/09/24 02:24:30;;;;;;;5.90;5.50;;;;;;;15.08;85.27;101142.78;5044344;28;20217;-81
2023/09/24 02:26:56;;;;;;;6.67;6.17;;;;;;;15.09;85.00;101137.47;5056483;28;20216;-81
2023/09/24 02:29:24;;;;;;;6.80;6.03;;;;;;;15.06;85.04;101144.59;5058976;28;20252;-81
2023/09/24 02:31:52;;;;;;;6.50;6.00;;;;;;;15.04;84.98;101141.13;5058349;28;20206;-81
2023/09/24 02:34:18;;;;;;;7.23;6.63;;;;;;;15.01;84.60;101144.72;5059778;28;20212;-82
2023/09/24 02:36:45;;;;;;;6.07;5.67;;;;;;;14.94;85.09;101145.75;5054774;28;20216;-81
2023/09/24 02:39:11;;;;;;;7.00;6.40;;;;;;;14.96;85.68;101137.84;5078099;28;20227;-80
2023/09/24 02:41:37;;;;;;;8.60;7.70;;;;;;;14.83;86.49;101132.06;5054131;28;20564;-81
2023/09/24 02:44:05;;;;;;;7.67;7.07;;;;;;;14.87;86.23;101113.53;5058533;28;20213;-81
2023/09/24 02:46:34;;;;;;;5.60;5.20;;;;;;;14.92;86.16;101121.28;5047740;28;20206;-81
2023/09/24 02:49:00;;;;;;;6.70;6.20;;;;;;;14.88;86.22;101112.63;5057821;28;20229;-80
2023/09/24 02:51:28;;;;;;;6.90;6.40;;;;;;;14.92;86.61;101110.75;5051230;28;20209;-80
2023/09/24 02:53:55;;;;;;;6.53;5.60;;;;;;;14.93;86.94;101107.25;5075365;28;20204;-80
2023/09/24 02:56:21;;;;;;;7.13;6.60;;;;;;;14.92;87.43;101102.03;5067662;28;20195;-80
2023/09/24 02:58:47;;;;;;;7.57;6.97;;;;;;;14.88;87.70;101093.34;5061499;28;20225;-80
2023/09/24 03:01:16;;;;;;;6.73;6.33;;;;;;;14.93;87.36;101099.38;5073428;28;20281;-79
2023/09/24 03:03:44;;;;;;;6.70;6.10;;;;;;;14.91;87.21;101101.16;5077463;28;20202;-79
2023/09/24 03:06:10;;;;;;;6.80;6.30;;;;;;;14.90;87.21;101104.69;5071141;28;20197;-80
2023/09/24 03:08:36;;;;;;;5.60;5.17;;;;;;;14.86;87.79;101097.78;5046205;28;20218;-81
2023/09/24 03:11:13;;;;;;;5.77;5.37;;;;;;;14.86;88.31;101089.91;5052969;28;20860;-80
2023/09/24 03:13:40;;;;;;;6.27;5.80;;;;;;;14.90;88.38;101091.53;5053733;28;20213;-82
2023/09/24 03:16:07;;;;;;;7.37;6.87;;;;;;;14.95;88.00;101094.06;5055824;28;20202;-82
2023/09/24 03:18:33;;;;;;;7.17;6.67;;;;;;;14.92;88.47;101095.00;5058049;28;20770;-79
2023/09/24 03:21:04;;;;;;;9.90;9.13;;;;;;;14.96;88.86;101090.53;5047371;28;20201;-81
2023/09/24 03:23:31;;;;;;;7.00;6.50;;;;;;;14.99;89.01;101093.94;5041537;28;20262;-79
2023/09/24 03:25:57;;;;;;;7.50;7.00;;;;;;;14.99;88.90;101099.19;5061265;28;20232;-80
2023/09/24 03:28:24;;;;;;;7.00;6.40;;;;;;;15.01;88.45;101096.53;5052125;28;20226;-80
2023/09/24 03:30:51;;;;;;;8.13;7.53;;;;;;;15.04;88.71;101114.84;5051878;28;20222;-82
2023/09/24 03:33:18;;;;;;;7.97;7.37;;;;;;;14.96;88.88;101119.44;5052633;28;20202;-80
2023/09/24 03:35:47;;;;;;;10.37;9.57;;;;;;;15.00;88.88;101114.06;5060583;28;20217;-81
2023/09/24 03:38:15;;;;;;;10.87;9.97;;;;;;;15.04;88.85;101109.56;5048692;28;20225;-82
2023/09/24 03:40:42;;;;;;;9.80;9.10;;;;;;;15.12;88.57;101118.13;5061246;28;20292;-80
2023/09/24 03:43:08;;;;;;;11.83;10.93;;;;;;;15.08;88.52;101127.00;5047402;28;20642;-81
2023/09/24 03:45:35;;;;;;;10.20;9.50;;;;;;;15.14;88.66;101126.81;5058382;28;20216;-82
2023/09/24 03:48:02;;;;;;;10.80;10.10;;;;;;;15.20;88.21;101136.31;5046782;28;20691;-80
2023/09/24 03:50:28;;;;;;;11.37;10.33;;;;;;;15.21;87.88;101152.06;5057848;28;20315;-82
2023/09/24 03:52:55;;;;;;;10.43;9.73;;;;;;;15.23;88.08;101152.03;5059618;28;20212;-81
2023/09/24 03:55:23;;;;;;;10.47;9.67;;;;;;;15.21;88.46;101152.06;5043739;28;20206;-82
2023/09/24 03:57:50;;;;;;;11.30;10.40;;;;;;;15.21;87.91;101152.06;5040902;28;20712;-81
2023/09/24 04:00:18;;;;;;;10.70;9.90;;;;;;;15.18;88.43;101152.16;5050823;28;20213;-82
2023/09/24 04:02:46;;;;;;;10.30;9.57;;;;;;;15.22;88.56;101148.56;5060679;28;20672;-81
2023/09/24 04:05:17;;;;;;;10.30;9.53;;;;;;;15.22;88.13;101163.44;5052376;28;20216;-82
2023/09/24 04:07:44;;;;;;;10.53;9.73;;;;;;;15.19;88.04;101164.41;5052341;28;20705;-81
2023/09/24 04:10:14;;;;;;;10.17;9.40;;;;;;;15.24;87.77;101172.16;5051862;28;20614;-81
2023/09/24 04:12:42;;;;;;;10.13;9.43;;;;;;;15.20;87.51;101183.66;5060562;28;20662;-82
2023/09/24 04:15:10;;;;;;;10.87;9.90;;;;;;;15.20;87.01;101184.56;5066547;28;20205;-81
2023/09/24 04:17:37;;;;;;;9.57;8.87;;;;;;;15.14;87.14;101187.31;5075595;28;20201;-80
2023/09/24 04:20:06;;;;;;;8.63;8.13;;;;;;;15.12;87.36;101197.00;5074505;28;20222;-79
2023/09/24 04:22:33;;;;;;;8.20;7.60;;;;;;;15.11;87.21;101195.31;5072745;28;20229;-78
2023/09/24 04:24:59;;;;;;;8.23;7.70;;;;;;;14.98;87.36;101207.03;5053266;28;20220;-78
2023/09/24 04:27:26;;;;;;;7.83;7.33;;;;;;;14.98;86.92;101214.91;5059765;28;20201;-79
2023/09/24 04:29:54;;;;;;;7.60;7.00;;;;;;;14.97;86.68;101223.72;5051157;28;20317;-78
2023/09/24 04:32:20;;;;;;;8.27;7.57;;;;;;;14.97;86.78;101234.22;5051255;28;20225;-81
2023/09/24 04:34:47;;;;;;;7.63;7.13;;;;;;;14.88;87.54;101230.94;5042292;28;20214;-82
2023/09/24 04:37:16;;;;;;;6.30;5.87;;;;;;;14.88;87.55;101228.31;5059835;28;20213;-81
2023/09/24 04:39:43;;;;;;;7.13;6.63;;;;;;;14.83;88.40;101224.06;5057981;28;20221;-81
2023/09/24 04:42:11;;;;;;;7.60;6.90;;;;;;;14.87;88.40;101212.56;5048335;28;20881;-81
2023/09/24 04:44:37;;;;;;;6.73;6.33;;;;;;;14.90;88.33;101220.34;5048348;28;20220;-81
2023/09/24 04:47:05;;;;;;;7.40;6.87;;;;;;;14.90;88.72;101212.47;5054583;28;20572;-81
2023/09/24 04:49:32;;;;;;;6.30;5.80;;;;;;;14.96;89.01;101214.94;5058902;28;20233;-81
2023/09/24 04:51:58;;;;;;;6.33;5.93;;;;;;;15.00;88.66;101213.97;5058081;28;20205;-81
2023/09/24 04:54:24;;;;;;;6.20;5.80;;;;;;;15.03;88.14;101224.41;5059802;28;20656;-81
2023/09/24 04:56:52;;;;;;;6.13;5.67;;;;;;;15.03;88.49;101227.03;5057760;28;20212;-80
2023/09/24 04:59:18;;;;;;;5.43;5.00;;;;;;;15.04;88.78;101233.16;5052400;28;20233;-79
2023/09/24 05:01:45;;;;;;;6.27;5.73;;;;;;;15.06;88.32;101232.25;5051566;28;20201;-80
2023/09/24 05:04:12;;;;;;;5.27;4.97;;;;;;;15.09;88.54;101236.56;5050249;28;20211;-82
2023/09/24 05:06:39;;;;;;;5.40;5.00;;;;;;;15.06;88.84;101240.13;5057088;28;20585;-82
2023/09/24 05:09:05;;;;;;;5.73;5.30;;;;;;;15.08;88.91;101243.59;5064532;28;20249;-81
2023/09/24 05:11:31;;;;;;;5.40;5.00;;;;;;;15.07;89.06;101238.34;5056674;28;20655;-82
2023/09/24 05:13:57;;;;;;;3.93;3.63;;;;;;;15.10;88.84;101238.25;5037125;28;20209;-82
2023/09/24 05:16:24;;;;;;;5.50;4.73;;;;;;;15.12;88.72;101241.72;5045208;28;20735;-80
2023/09/24 05:18:50;;;;;;;4.90;4.43;;;;;;;15.14;89.10;101244.31;5048646;28;20228;-81
2023/09/24 05:21:19;;;;;;;5.13;4.83;;;;;;;15.15;88.95;101246.91;5052208;28;20202;-81
2023/09/24 05:23:46;;;;;;;6.10;5.60;;;;;;;15.22;88.26;101268.66;5046027;28;20671;-80
2023/09/24 05:26:13;;;;;;;5.13;4.70;;;;;;;15.24;88.26;101275.63;5051269;28;20570;-80
2023/09/24 05:28:40;;;;;;;6.80;6.30;;;;;;;15.12;88.74;101277.69;5050676;28;20218;-79
2023/09/24 05:31:07;;;;;;;5.27;4.77;;;;;;;15.15;88.79;101270.59;5049816;28;20236;-81
2023/09/24 05:33:33;;;;;;;6.53;5.53;;;;;;;15.21;88.47;101274.84;5044152;28;20202;-81
2023/09/24 05:36:00;;;;;;;5.50;5.00;;;;;;;15.27;88.61;101272.91;5057701;28;20228;-79
2023/09/24 05:38:29;;;;;;;5.30;4.80;;;;;;;15.27;89.03;101274.69;5055977;28;20218;-80
2023/09/24 05:40:56;;;;;;;5.63;5.33;;;;;;;15.27;89.73;101261.53;5040772;28;20201;-80
2023/09/24 05:43:22;;;;;;;6.60;6.10;;;;;;;15.25;89.78;101263.31;5057400;28;20208;-82
2023/09/24 05:45:49;;;;;;;4.83;4.50;;;;;;;15.25;89.86;101266.81;5048201;28;20224;-82
2023/09/24 05:48:17;;;;;;;5.50;5.10;;;;;;;15.26;89.84;101268.56;5056740;28;20221;-79
2023/09/24 05:50:44;;;;;;;6.17;5.77;;;;;;;15.30;89.46;101274.59;5057007;28;20222;-82
2023/09/24 05:53:11;;;;;;;4.17;3.80;;;;;;;15.31;89.30;101288.63;5052024;28;20205;-82
2023/09/24 05:55:39;;;;;;;4.67;4.27;;;;;;;15.28;89.21;101292.16;5045185;28;20205;-82
2023/09/24 05:58:07;;;;;;;3.53;3.33;;;;;;;15.32;89.41;101298.22;5049317;28;20206;-82
2023/09/24 06:00:37;;;;;;;4.20;3.63;;;;;;;15.32;88.94;101303.50;5051257;28;20209;-81
2023/09/24 06:03:03;;;;;;;4.27;3.90;;;;;;;15.29;89.16;101314.97;5056661;28;20205;-78
2023/09/24 06:05:37;;;;;;;3.80;3.50;;;;;;;15.29;88.80;101321.06;5043837;28;20209;-79
2023/09/24 06:08:04;;;;;;;4.70;4.40;;;;;;;15.29;88.91;101334.22;5036968;28;20195;-80
2023/09/24 06:10:31;;;;;;;7.60;5.73;;;;;;;15.28;88.64;101339.50;5044397;28;20229;-82
2023/09/24 06:12:59;;;;;;;5.70;5.20;;;;;;;15.28;88.75;101345.66;5061051;28;20189;-81
2023/09/24 06:15:25;;;;;;;6.40;5.90;;;;;;;15.26;89.31;101344.84;5066400;28;20216;-81
2023/09/24 06:17:52;;;;;;;6.60;6.20;;;;;;;15.32;88.63;101340.31;5043040;28;20210;-79
2023/09/24 06:20:18;;;;;;;6.73;6.30;;;;;;;15.31;88.64;101346.50;5054694;28;20209;-79
2023/09/24 06:22:45;;;;;;;8.13;7.43;;;;;;;15.34;88.06;101352.56;5057697;28;20668;-79
2023/09/24 06:25:12;;;;;;;7.70;7.20;;;;;;;15.31;87.38;101371.03;5059318;28;20200;-81
2023/09/24 06:27:40;;;;;;;8.07;7.37;;;;;;;15.39;87.06;101379.59;5059901;28;20208;-80
2023/09/24 06:30:10;;;;;;;8.73;7.93;;;;;;;15.43;86.12;101401.44;5044189;28;20254;-82
2023/09/24 06:32:37;;;;;;;8.07;7.47;;;;;;;15.46;86.39;101410.13;5059278;28;20296;-82
2023/09/24 06:35:04;;;;;;;9.50;8.60;;;;;;;15.48;86.49;101415.38;5060746;28;20292;-81
2023/09/24 06:37:31;;;;;;;8.03;7.43;;;;;;;15.48;86.57;101420.63;5056394;28;20594;-81
2023/09/24 06:39:58;;;;;;;9.07;8.47;;;;;;;15.48;87.00;101420.63;5058047;28;20233;-81
2023/09/24 06:42:24;;;;;;;10.33;9.50;;;;;;;15.48;87.14;101421.50;5045023;28;20202;-82
2023/09/24 06:44:51;;;;;;;10.73;9.60;;;;;;;15.23;86.98;101438.72;5047815;28;20209;-81
2023/09/24 06:47:19;;;;;;;9.63;8.93;;;;;;;15.32;87.60;101416.59;5052578;28;20205;-82
2023/09/24 06:49:48;;;;;;;8.80;8.10;;;;;;;15.32;87.50;101424.50;5059239;28;20628;-82
2023/09/24 06:52:14;;;;;;;8.13;7.53;;;;;;;15.21;87.39;101425.59;5050948;28;20692;-82
2023/09/24 06:54:41;;;;;;;7.63;7.03;;;;;;;15.12;87.99;101420.53;5050861;28;20210;-80
2023/09/24 06:57:07;;;;;;;8.37;7.67;;;;;;;15.01;88.25;101419.94;5060253;28;20205;-79
2023/09/24 06:59:34;;;;;;;7.27;6.77;;;;;;;15.24;88.16;101422.94;5057326;28;20232;-81
2023/09/24 07:02:00;;;;;;;7.13;6.63;;;;;;;15.34;87.64;101430.59;5057537;28;20206;-79
2023/09/24 07:04:28;;;;;;;6.80;6.30;;;;;;;15.22;86.67;101444.88;5058487;28;20660;-81
2023/09/24 07:06:54;;;;;;;6.93;6.43;;;;;;;15.24;86.63;101448.34;5049532;28;20210;-81
2023/09/24 07:09:21;;;;;;;7.47;6.87;;;;;;;15.27;86.54;101459.66;5045851;28;20231;-79
2023/09/24 07:11:47;;;;;;;6.97;6.03;;;;;;;15.21;85.96;101464.19;5050530;28;20245;-78
2023/09/24 07:14:14;;;;;;;6.10;5.60;;;;;;;15.07;84.97;101485.53;5055333;28;20205;-78
2023/09/24 07:16:40;;;;;;;5.80;5.30;;;;;;;15.16;85.02;101490.59;5047583;28;20611;-79
2023/09/24 07:19:07;;;;;;;6.30;5.47;;;;;;;15.36;85.15;101495.44;5033780;28;20221;-79
2023/09/24 07:21:34;;;;;;;5.63;5.13;;;;;;;15.27;83.27;101525.44;5049127;28;20209;-80
2023/09/24 07:24:02;;;;;;;5.63;5.13;;;;;;;15.33;82.66;101556.00;5057305;28;20209;-81
2023/09/24 07:26:29;;;;;;;4.90;4.50;;;;;;;15.43;82.54;101565.44;5060413;28;20224;-84
2023/09/24 07:28:55;;;;;;;5.00;4.70;;;;;;;15.44;82.69;101590.88;5060787;28;20235;-82
2023/09/24 07:31:25;;;;;;;4.83;4.43;;;;;;;15.44;81.73;101595.22;5052650;28;20230;-81
2023/09/24 07:33:53;;;;;;;4.80;4.30;;;;;;;15.44;81.32;101608.41;5043947;28;20340;-80
2023/09/24 07:36:20;;;;;;;4.97;4.57;;;;;;;15.46;81.46;101615.38;5038711;28;20575;-82
2023/09/24 07:38:50;;;;;;;5.43;5.00;;;;;;;15.43;81.44;101623.31;5060959;28;20229;-80
2023/09/24 07:41:16;;;;;;;5.37;4.97;;;;;;;15.17;82.37;101608.06;5049663;28;20734;-82
2023/09/24 07:43:43;;;;;;;6.63;5.37;;;;;;;15.11;81.88;101613.44;5061920;28;20203;-79
2023/09/24 07:46:12;;;;;;;5.70;5.20;;;;;;;15.27;81.71;101620.13;5045747;28;20201;-79
2023/09/24 07:48:38;;;;;;;5.67;5.17;;;;;;;15.42;81.35;101633.88;5055700;28;20221;-80
2023/09/24 07:51:05;;;;;;;5.57;5.07;;;;;;;15.43;80.73;101651.41;5049430;28;20270;-79
2023/09/24 07:53:32;;;;;;;5.77;5.37;;;;;;;15.28;81.25;101658.72;5022311;28;20233;-80
2023/09/24 07:56:02;;;;;;;5.70;5.20;;;;;;;15.37;80.91;101667.31;5018299;28;20218;-79
2023/09/24 07:58:30;;;;;;;6.13;5.53;;;;;;;15.29;80.74;101667.47;5016427;28;20234;-81
2023/09/24 08:01:01;;;;;;;5.77;5.37;;;;;;;15.57;81.75;101654.63;5018167;28;20207;-80
2023/09/24 08:03:28;;;;;;;5.57;5.07;;;;;;;15.70;80.96;101665.78;5014670;28;20211;-80
2023/09/24 08:05:54;;;;;;;6.00;5.50;;;;;;;15.73;80.21;101685.94;5025533;28;20289;-81
2023/09/24 08:08:21;;;;;;;5.90;5.40;;;;;;;15.60;79.76;101694.06;5018521;28;20231;-81
2023/09/24 08:10:47;;;;;;;5.10;4.70;;;;;;;15.79;81.11;101673.50;5024141;28;20237;-81
2023/09/24 08:13:16;;;;;;;7.50;5.60;;;;;;;15.67;79.94;101686.91;5015007;28;20293;-80
2023/09/24 08:15:42;;;;;;;5.53;5.13;;;;;;;15.70;79.40;101705.28;5021487;28;20273;-81
2023/09/24 08:18:11;;;;;;;5.83;5.33;;;;;;;15.72;80.16;101692.06;5019891;28;20654;-79
2023/09/24 08:20:38;;;;;;;6.27;5.10;;;;;;;15.84;79.93;101681.34;5023718;28;20304;-79
2023/09/24 08:23:05;;;;;;;6.03;5.40;;;;;;;15.92;79.70;101684.66;5025951;28;20234;-79
2023/09/24 08:25:31;;;;;;;5.27;4.87;;;;;;;15.88;78.19;101725.13;5018100;28;20207;-82
2023/09/24 08:27:58;;;;;;;5.37;4.97;;;;;;;15.66;78.34;101743.09;5021667;28;20211;-79
2023/09/24 08:30:31;;;;;;;5.97;5.33;;;;;;;15.69;78.95;101737.75;5018782;28;20673;-81
2023/09/24 08:32:58;;;;;;;5.47;5.07;;;;;;;15.81;78.83;101726.13;5020001;28;20207;-82
2023/09/24 08:35:25;;;;;;;5.97;5.47;;;;;;;15.93;78.97;101727.66;5023873;28;20208;-78
2023/09/24 08:37:51;;;;;;;5.50;5.20;;;;;;;15.67;78.91;101735.13;5017829;28;21214;-80
2023/09/24 08:40:18;;;;;;;5.13;4.73;;;;;;;15.78;79.06;101723.59;5029301;28;20252;-78
2023/09/24 08:42:47;;;;;;;5.67;5.27;;;;;;;15.73;78.91;101722.78;5023236;28;20231;-80
2023/09/24 08:45:15;;;;;;;4.83;4.43;;;;;;;15.98;79.19;101712.66;5026553;28;20290;-79
2023/09/24 08:47:43;;;;;;;5.60;5.10;;;;;;;16.16;80.50;101696.44;5029919;28;20202;-81
2023/09/24 08:50:10;;;;;;;4.50;4.10;;;;;;;16.12;76.84;101744.81;5013760;28;20225;-82
2023/09/24 08:52:38;;;;;;;5.40;4.90;;;;;;;15.75;76.20;101794.72;5019072;28;20589;-82
2023/09/24 08:55:06;;;;;;;4.43;4.00;;;;;;;15.95;77.00;101783.78;5024419;28;20209;-83
2023/09/24 08:57:33;;;;;;;4.37;4.00;;;;;;;16.09;76.93;101776.47;5014376;28;20284;-83
2023/09/24 09:00:00;;;;;;;4.70;4.30;;;;;;;16.05;75.94;101786.22;5017936;28;21113;-84
2023/09/24 09:02:26;;;;;;;4.90;4.50;;;;;;;15.94;76.83;101805.78;5023709;28;20247;-79
2023/09/24 09:04:55;;;;;;;4.67;4.37;;;;;;;16.14;77.74;101765.88;5020279;28;20762;-80
2023/09/24 09:07:22;;;;;;;5.33;3.90;;;;;;;16.07;76.80;101773.00;5024617;28;20212;-81
2023/09/24 09:09:55;;;;;;;4.50;4.20;;;;;;;15.93;76.20;101801.41;5020472;28;20230;-82
2023/09/24 09:12:24;;;;;;;4.90;4.50;;;;;;;15.91;76.27;101800.56;5023414;28;20230;-82
2023/09/24 09:14:51;;;;;;;4.57;4.17;;;;;;;16.05;75.94;101802.03;5024699;28;20210;-82
2023/09/24 09:17:17;;;;;;;3.97;3.67;;;;;;;16.06;75.50;101810.81;5022043;28;20220;-82
2023/09/24 09:19:49;;;;;;;4.33;4.13;;;;;;;16.33;76.10;101805.84;5021542;28;20226;-82
2023/09/24 09:22:21;;;;;;;3.57;3.37;;;;;;;16.43;75.34;101817.94;5017994;28;20199;-83
2023/09/24 09:24:49;;;;;;;5.40;3.90;;;;;;;16.62;75.49;101824.56;5019414;28;20207;-83
2023/09/24 09:27:15;;;;;;;4.20;3.83;;;;;;;16.61;75.28;101827.22;5021832;28;20206;-82
2023/09/24 09:29:42;;;;;;;3.43;3.23;;;;;;;16.58;72.91;101874.75;5021510;28;20225;-82
2023/09/24 09:32:08;;;;;;;4.67;3.33;;;;;;;16.68;72.51;101885.06;5014822;28;20239;-84
2023/09/24 09:34:35;;;;;;;3.57;3.27;;;;;;;16.67;72.99;101895.66;5029373;28;20295;-82
2023/09/24 09:37:17;;;;;;;3.30;3.03;;;;;;;16.75;73.28;101893.72;5033747;28;20228;-82
2023/09/24 09:39:46;;;;;;;2.70;2.50;;;;;;;16.82;71.97;101903.25;5033667;28;20234;-83
2023/09/24 09:42:20;;;;;;;3.40;3.10;;;;;;;16.86;71.47;101922.53;5025532;28;20205;-84
2023/09/24 09:44:48;;;;;;;3.60;3.30;;;;;;;16.72;72.46;101925.41;5028479;28;20219;-84
2023/09/24 09:47:18;;;;;;;3.37;3.07;;;;;;;16.61;73.13;101901.91;5031078;28;20213;-85
2023/09/24 09:49:49;;;;;;;3.13;2.90;;;;;;;16.62;71.99;101914.19;5027763;28;20230;-83
2023/09/24 09:52:19;;;;;;;2.93;2.73;;;;;;;16.53;71.62;101926.69;5033648;28;20225;-83
2023/09/24 09:54:52;;;;;;;3.30;3.10;;;;;;;16.65;71.10;101932.59;5030427;28;20652;-82
2023/09/24 09:57:18;;;;;;;2.90;2.53;;;;;;;16.77;70.72;101942.03;5033243;28;20207;-82
2023/09/24 09:59:46;;;;;;;3.60;2.90;;;;;;;16.98;70.54;101953.06;5028221;28;20239;-83
2023/09/24 10:02:12;;;;;;;3.03;2.73;;;;;;;16.85;69.46;101973.56;5031012;28;20202;-84
2023/09/24 10:04:39;;;;;;;3.47;3.00;;;;;;;17.14;69.95;101979.97;5027288;28;20209;-82
2023/09/24 10:07:06;;;;;;;7.00;3.20;;;;;;;17.15;70.44;101969.38;5035366;28;20701;-84
2023/09/24 10:09:35;;;;;;;4.03;3.17;;;;;;;17.29;69.81;101978.78;5033638;28;20228;-83
2023/09/24 10:12:07;;;;;;;2.97;2.77;;;;;;;17.19;70.10;101989.53;5032048;28;20232;-84
2023/09/24 10:14:35;;;;;;;3.43;3.17;;;;;;;17.37;71.00;101959.22;5032802;28;20699;-83
2023/09/24 10:17:24;;;;;;;3.63;3.33;;;;;;;17.24;69.33;101989.41;5029696;28;20222;-83
2023/09/24 10:19:53;;;;;;;4.50;3.33;;;;;;;17.02;69.11;102003.06;5039971;28;20285;-83
2023/09/24 10:22:30;;;;;;;3.20;2.90;;;;;;;16.60;69.15;102016.16;5036422;28;20210;-81
2023/09/24 10:24:57;;;;;;;3.67;3.47;;;;;;;16.59;70.33;101995.09;5034765;28;20211;-82
2023/09/24 10:27:30;;;;;;;2.90;2.70;;;;;;;16.75;70.06;101987.75;5033537;28;20208;-81
2023/09/24 10:30:03;;;;;;;6.43;3.33;;;;;;;16.74;70.87;101986.03;5030282;28;20723;-82
2023/09/24 10:32:45;;;;;;;5.47;2.80;;;;;;;16.94;69.38;101985.66;5032982;28;20223;-81
2023/09/24 10:35:12;;;;;;;3.07;2.77;;;;;;;17.15;69.48;101982.59;5040985;28;20568;-80
2023/09/24 10:37:57;;;;;;;2.60;2.37;;;;;;;17.31;69.03;101992.81;5036975;28;20235;-82
2023/09/24 10:40:26;;;;;;;3.73;2.80;;;;;;;17.22;68.05;102030.81;5033034;28;20206;-82
2023/09/24 10:43:17;;;;;;;3.03;2.83;;;;;;;17.25;68.49;102026.34;5030455;28;20207;-81
2023/09/24 10:45:44;;;;;;;3.00;2.73;;;;;;;17.09;68.67;102034.63;5031935;28;20210;-82
2023/09/24 10:48:13;;;;;;;3.20;2.90;;;;;;;17.07;67.74;102035.50;5032045;28;20238;-82
2023/09/24 10:50:41;;;;;;;2.93;2.70;;;;;;;17.20;67.95;102045.81;5035422;28;20203;-79
2023/09/24 10:53:09;;;;;;;2.63;2.27;;;;;;;17.38;67.15;102044.53;5034334;28;20233;-81
2023/09/24 10:55:37;;;;;;;2.53;2.33;;;;;;;17.70;67.76;102051.78;5035047;28;20205;-82
2023/09/24 10:58:05;;;;;;;4.90;2.17;;;;;;;17.84;65.56;102073.50;5029859;28;20642;-83
2023/09/24 11:00:35;;;;;;;2.83;2.63;;;;;;;17.75;64.51;102117.69;5016394;28;20221;-81
2023/09/24 11:03:04;;;;;;;1.90;1.80;;;;;;;17.96;64.12;102124.31;5022021;28;20210;-78
2023/09/24 11:05:35;;;;;;;2.03;1.73;;;;;;;18.24;66.51;102103.38;5026075;28;20212;-83
2023/09/24 11:08:01;;;;;;;2.30;2.10;;;;;;;18.42;65.40;102092.34;5029245;28;20319;-83
2023/09/24 11:10:28;;;;;;;1.77;1.67;;;;;;;18.43;63.64;102143.44;5033924;28;20197;-80
2023/09/24 11:12:57;;;;;;;2.67;1.80;;;;;;;18.38;61.25;102187.66;5031660;28;20317;-84
2023/09/24 11:15:25;;;;;;;2.20;1.53;;;;;;;18.39;61.18;102226.41;5028385;28;20201;-83
2023/09/24 11:17:54;;;;;;;2.23;2.03;;;;;;;18.76;62.83;102209.66;5022510;28;20215;-83
2023/09/24 11:20:22;;;;;;;1.87;1.73;;;;;;;18.82;60.77;102243.94;5021928;28;20207;-82
2023/09/24 11:22:56;;;;;;;1.70;1.60;;;;;;;18.49;60.15;102287.88;5026551;28;20640;-84
2023/09/24 11:25:23;;;;;;;2.20;1.60;;;;;;;19.36;60.72;102263.75;5022766;28;20207;-84
2023/09/24 11:27:50;;;;;;;1.80;1.70;;;;;;;19.88;55.46;102310.06;5021457;28;20813;-83